createdAt,value
2017-07-03T00:00:07.002Z,94.3
2017-07-03T00:00:27.662Z,94.4
2017-07-03T00:00:48.919Z,94.3
2017-07-03T00:01:10.450Z,94.3
2017-07-03T00:01:31.142Z,94.1
2017-07-03T00:01:51.792Z,94.4
2017-07-03T00:02:12.444Z,94.5
2017-07-03T00:02:33.847Z,94.4
2017-07-03T00:02:55.251Z,94.1
2017-07-03T00:03:15.895Z,94.2
2017-07-03T00:03:36.557Z,94.3
2017-07-03T00:03:57.197Z,94
2017-07-03T00:04:17.851Z,94.2
2017-07-03T00:04:38.507Z,94.9
2017-07-03T00:04:59.816Z,94.6
2017-07-03T00:05:20.479Z,94.7
2017-07-03T00:05:41.118Z,94.6
2017-07-03T00:06:02.081Z,94.8
2017-07-03T00:06:22.744Z,94.9
2017-07-03T00:06:43.415Z,95
2017-07-03T00:07:04.852Z,95.1
2017-07-03T00:07:26.363Z,94.7
2017-07-03T00:07:47.018Z,95.1
2017-07-03T00:08:07.682Z,94.7
2017-07-03T00:08:28.340Z,94.9
2017-07-03T00:08:49.852Z,95.1
2017-07-03T00:09:11.390Z,94.1
2017-07-03T00:09:32.114Z,94.5
2017-07-03T00:09:52.771Z,94.4
2017-07-03T00:10:14.319Z,94.4
2017-07-03T00:10:34.968Z,94.4
2017-07-03T00:10:56.343Z,94.1
2017-07-03T00:11:16.984Z,94.9
2017-07-03T00:11:37.645Z,95
2017-07-03T00:11:58.330Z,94.5
2017-07-03T00:12:19.021Z,94.7
2017-07-03T00:12:39.672Z,94.5
2017-07-03T00:13:00.850Z,94.9
2017-07-03T00:13:21.503Z,95.1
2017-07-03T00:13:42.153Z,95
2017-07-03T00:14:02.799Z,95.1
2017-07-03T00:14:23.455Z,94.6
2017-07-03T00:14:44.816Z,94.8
2017-07-03T00:15:05.462Z,94.8
2017-07-03T00:15:26.102Z,94.8
2017-07-03T00:15:47.315Z,94.9
2017-07-03T00:16:07.995Z,94.5
2017-07-03T00:16:28.658Z,95.1
2017-07-03T00:16:49.294Z,95.1
2017-07-03T00:17:09.978Z,94.7
2017-07-03T00:17:30.628Z,95.6
2017-07-03T00:17:51.279Z,95.4
2017-07-03T00:18:11.935Z,95.5
2017-07-03T00:18:32.593Z,95.5
2017-07-03T00:18:53.292Z,95.6
2017-07-03T00:19:13.653Z,95.6
2017-07-03T00:19:35.268Z,95.6
2017-07-03T00:19:55.959Z,95.7
2017-07-03T00:20:17.421Z,94.9
2017-07-03T00:20:38.054Z,95.1
2017-07-03T00:20:58.702Z,94.5
2017-07-03T00:21:19.345Z,94.8
2017-07-03T00:21:40.916Z,95.1
2017-07-03T00:22:01.557Z,94.9
2017-07-03T00:22:22.843Z,95
2017-07-03T00:22:43.504Z,94.2
2017-07-03T00:23:04.155Z,94.9
2017-07-03T00:23:24.814Z,94.9
2017-07-03T00:23:45.454Z,94.9
2017-07-03T00:24:06.096Z,95
2017-07-03T00:24:26.746Z,95
2017-07-03T00:24:47.861Z,94.7
2017-07-03T00:25:08.510Z,95
2017-07-03T00:25:29.144Z,95
2017-07-03T00:25:49.458Z,95.1
2017-07-03T00:26:10.934Z,94.9
2017-07-03T00:26:32.360Z,95
2017-07-03T00:26:53.007Z,95
2017-07-03T00:27:13.681Z,95.2
2017-07-03T00:27:34.401Z,95.2
2017-07-03T00:27:55.049Z,94.5
2017-07-03T00:28:15.702Z,94.7
2017-07-03T00:28:36.854Z,94.5
2017-07-03T00:28:57.502Z,94.9
2017-07-03T00:29:18.159Z,95
2017-07-03T00:29:38.808Z,94.8
2017-07-03T00:29:59.134Z,94.8
2017-07-03T00:30:21.353Z,94.7
2017-07-03T00:30:41.994Z,94.8
2017-07-03T00:31:02.654Z,94.5
2017-07-03T00:31:23.302Z,94.5
2017-07-03T00:31:43.659Z,94.9
2017-07-03T00:32:05.275Z,95.5
2017-07-03T00:32:26.776Z,94.9
2017-07-03T00:32:47.439Z,94.5
2017-07-03T00:33:08.116Z,95.3
2017-07-03T00:33:29.469Z,94.9
2017-07-03T00:33:50.114Z,95.1
2017-07-03T00:34:11.376Z,95.3
2017-07-03T00:34:33.013Z,95
2017-07-03T00:34:53.663Z,94.5
2017-07-03T00:35:14.331Z,94.9
2017-07-03T00:35:34.985Z,94.7
2017-07-03T00:35:55.642Z,94.6
2017-07-03T00:36:16.287Z,95.6
2017-07-03T00:36:36.925Z,94.9
2017-07-03T00:36:57.565Z,95.2
2017-07-03T00:37:18.920Z,94.6
2017-07-03T00:37:39.569Z,95
2017-07-03T00:38:00.232Z,95.1
2017-07-03T00:38:20.874Z,95.1
2017-07-03T00:38:41.540Z,95.1
2017-07-03T00:39:02.176Z,95.3
2017-07-03T00:39:23.376Z,95.2
2017-07-03T00:39:44.845Z,95.1
2017-07-03T00:40:05.536Z,94.9
2017-07-03T00:40:26.192Z,95.6
2017-07-03T00:40:46.841Z,95.2
2017-07-03T00:41:07.509Z,95.1
2017-07-03T00:41:28.151Z,95.6
2017-07-03T00:41:48.793Z,95.6
2017-07-03T00:42:09.444Z,95.6
2017-07-03T00:42:30.109Z,94.7
2017-07-03T00:42:50.781Z,96.2
2017-07-03T00:43:11.430Z,95.6
2017-07-03T00:43:32.117Z,95.7
2017-07-03T00:43:52.765Z,96.2
2017-07-03T00:44:13.913Z,96.5
2017-07-03T00:44:35.384Z,96.4
2017-07-03T00:44:57.782Z,96.4
2017-07-03T00:45:19.373Z,96.3
2017-07-03T00:45:40.028Z,96.5
2017-07-03T00:46:00.667Z,96.7
2017-07-03T00:46:21.320Z,96.2
2017-07-03T00:46:41.975Z,95.6
2017-07-03T00:47:03.377Z,95.8
2017-07-03T00:47:24.024Z,96
2017-07-03T00:47:44.722Z,96
2017-07-03T00:48:05.867Z,95.8
2017-07-03T00:48:26.523Z,95.6
2017-07-03T00:48:47.211Z,95.8
2017-07-03T00:49:07.539Z,95.8
2017-07-03T00:49:28.207Z,95.8
2017-07-03T00:49:49.367Z,96.5
2017-07-03T00:50:10.029Z,96.3
2017-07-03T00:50:30.704Z,95.7
2017-07-03T00:50:51.924Z,95.8
2017-07-03T00:51:12.639Z,95.7
2017-07-03T00:51:33.280Z,95.8
2017-07-03T00:51:53.979Z,95.7
2017-07-03T00:52:14.621Z,95.9
2017-07-03T00:52:35.928Z,95.7
2017-07-03T00:52:57.416Z,95.8
2017-07-03T00:53:18.056Z,96.7
2017-07-03T00:53:39.378Z,95.9
2017-07-03T00:54:00.890Z,96.1
2017-07-03T00:54:21.543Z,96
2017-07-03T00:54:42.215Z,95.8
2017-07-03T00:55:02.874Z,95.8
2017-07-03T00:55:23.530Z,95.4
2017-07-03T00:55:44.175Z,95.8
2017-07-03T00:56:04.831Z,96
2017-07-03T00:56:25.559Z,95.2
2017-07-03T00:56:46.213Z,95.4
2017-07-03T00:57:06.898Z,95.5
2017-07-03T00:57:27.569Z,95.5
2017-07-03T00:57:48.284Z,96
2017-07-03T00:58:08.937Z,95.6
2017-07-03T00:58:29.603Z,96.2
2017-07-03T00:58:50.842Z,95.6
2017-07-03T00:59:11.527Z,95.4
2017-07-03T00:59:32.869Z,95.6
2017-07-03T00:59:53.566Z,95.3
2017-07-03T01:00:14.635Z,96
2017-07-03T01:00:35.874Z,95.8
2017-07-03T01:00:56.512Z,96
2017-07-03T01:01:17.161Z,96
2017-07-03T01:01:37.828Z,95.6
2017-07-03T01:01:58.476Z,95.8
2017-07-03T01:02:19.795Z,95.6
2017-07-03T01:02:40.452Z,96.1
2017-07-03T01:03:01.097Z,96.4
2017-07-03T01:03:21.432Z,95.7
2017-07-03T01:03:42.093Z,95.7
2017-07-03T01:04:03.405Z,96.4
2017-07-03T01:04:24.080Z,96.1
2017-07-03T01:04:44.725Z,95.9
2017-07-03T01:05:05.393Z,96.2
2017-07-03T01:05:26.931Z,95.9
2017-07-03T01:05:47.274Z,95.8
2017-07-03T01:06:07.934Z,96.1
2017-07-03T01:06:28.595Z,96.1
2017-07-03T01:06:49.250Z,95.9
2017-07-03T01:07:09.909Z,95.9
2017-07-03T01:07:30.573Z,96.3
2017-07-03T01:07:51.228Z,96
2017-07-03T01:08:11.940Z,96
2017-07-03T01:08:33.395Z,96.1
2017-07-03T01:08:54.092Z,95.6
2017-07-03T01:09:14.742Z,95.8
2017-07-03T01:09:35.398Z,95.7
2017-07-03T01:09:56.042Z,95.6
2017-07-03T01:10:16.693Z,95.7
2017-07-03T01:10:37.342Z,95.7
2017-07-03T01:10:58.000Z,95.6
2017-07-03T01:11:18.661Z,95.6
2017-07-03T01:11:39.310Z,96.4
2017-07-03T01:12:00.803Z,96.5
2017-07-03T01:12:21.449Z,96.3
2017-07-03T01:12:42.138Z,96.5
2017-07-03T01:13:03.305Z,95.6
2017-07-03T01:13:24.521Z,95.6
2017-07-03T01:13:45.163Z,95.7
2017-07-03T01:14:05.815Z,95.9
2017-07-03T01:14:27.355Z,95.5
2017-07-03T01:14:48.002Z,95.6
2017-07-03T01:15:08.654Z,96.1
2017-07-03T01:15:29.314Z,96.1
2017-07-03T01:15:49.701Z,95.6
2017-07-03T01:16:10.417Z,95.9
2017-07-03T01:16:31.082Z,95.9
2017-07-03T01:16:51.723Z,96.3
2017-07-03T01:17:12.899Z,96.4
2017-07-03T01:17:33.592Z,95.9
2017-07-03T01:17:54.973Z,95.9
2017-07-03T01:18:15.637Z,95.9
2017-07-03T01:18:36.290Z,95.8
2017-07-03T01:18:56.954Z,95.8
2017-07-03T01:19:17.619Z,95.8
2017-07-03T01:19:38.271Z,95.8
2017-07-03T01:19:58.920Z,96.1
2017-07-03T01:20:20.893Z,95.9
2017-07-03T01:20:42.448Z,96.1
2017-07-03T01:21:03.096Z,95.9
2017-07-03T01:21:23.767Z,95.8
2017-07-03T01:21:44.460Z,96.1
2017-07-03T01:22:05.104Z,96.1
2017-07-03T01:22:25.759Z,96.3
2017-07-03T01:22:47.812Z,95.7
2017-07-03T01:23:08.521Z,96
2017-07-03T01:23:29.168Z,96.4
2017-07-03T01:23:49.826Z,95.8
2017-07-03T01:24:10.980Z,95.9
2017-07-03T01:24:31.638Z,96.3
2017-07-03T01:24:52.326Z,96.1
2017-07-03T01:25:12.981Z,96.3
2017-07-03T01:25:34.408Z,96.3
2017-07-03T01:25:55.054Z,96.3
2017-07-03T01:26:15.696Z,96.3
2017-07-03T01:26:36.965Z,96.4
2017-07-03T01:26:57.629Z,96.3
2017-07-03T01:27:18.277Z,96.1
2017-07-03T01:27:38.595Z,95.8
2017-07-03T01:27:59.246Z,95.8
2017-07-03T01:28:19.911Z,96.1
2017-07-03T01:28:40.573Z,95.8
2017-07-03T01:29:01.222Z,95.9
2017-07-03T01:29:21.885Z,95.9
2017-07-03T01:29:42.534Z,95.7
2017-07-03T01:30:03.817Z,95.2
2017-07-03T01:30:24.497Z,95.2
2017-07-03T01:30:45.160Z,95.5
2017-07-03T01:31:05.836Z,95
2017-07-03T01:31:26.482Z,93.5
2017-07-03T01:31:47.131Z,93.8
2017-07-03T01:32:07.769Z,94
2017-07-03T01:32:28.414Z,94
2017-07-03T01:32:49.099Z,94.3
2017-07-03T01:33:09.757Z,94
2017-07-03T01:33:30.404Z,94.3
2017-07-03T01:33:51.978Z,94.3
2017-07-03T01:34:12.635Z,94.3
2017-07-03T01:34:33.277Z,93.8
2017-07-03T01:34:54.134Z,94.1
2017-07-03T01:35:14.467Z,93.2
2017-07-03T01:35:35.124Z,92.8
2017-07-03T01:35:55.782Z,92.9
2017-07-03T01:36:16.421Z,92.6
2017-07-03T01:36:37.084Z,93.5
2017-07-03T01:36:57.742Z,94.3
2017-07-03T01:37:18.381Z,94.3
2017-07-03T01:37:39.021Z,94.2
2017-07-03T01:37:59.675Z,94.3
2017-07-03T01:38:20.326Z,94.1
2017-07-03T01:38:40.995Z,94.9
2017-07-03T01:39:01.636Z,94.7
2017-07-03T01:39:22.297Z,94.7
2017-07-03T01:39:42.938Z,94
2017-07-03T01:40:03.602Z,93.8
2017-07-03T01:40:24.262Z,94.1
2017-07-03T01:40:44.917Z,94.3
2017-07-03T01:41:05.562Z,93.2
2017-07-03T01:41:27.040Z,93.3
2017-07-03T01:41:47.694Z,93.4
2017-07-03T01:42:08.887Z,92.7
2017-07-03T01:42:29.565Z,92.6
2017-07-03T01:42:50.211Z,92.6
2017-07-03T01:43:10.848Z,92.9
2017-07-03T01:43:31.504Z,92.7
2017-07-03T01:43:52.152Z,92.5
2017-07-03T01:44:12.789Z,92.4
2017-07-03T01:44:33.450Z,92.8
2017-07-03T01:44:54.111Z,92.2
2017-07-03T01:45:14.751Z,91.6
2017-07-03T01:45:35.409Z,92
2017-07-03T01:45:56.056Z,91
2017-07-03T01:46:17.409Z,90.9
2017-07-03T01:46:38.065Z,91.8
2017-07-03T01:46:58.718Z,92
2017-07-03T01:47:19.382Z,91.9
2017-07-03T01:47:40.023Z,92
2017-07-03T01:48:00.675Z,92
2017-07-03T01:48:21.991Z,92.5
2017-07-03T01:48:42.637Z,92.3
2017-07-03T01:49:03.338Z,92.3
2017-07-03T01:49:24.918Z,91.6
2017-07-03T01:49:45.605Z,92
2017-07-03T01:50:06.261Z,91.9
2017-07-03T01:50:26.901Z,91.9
2017-07-03T01:50:47.541Z,90.8
2017-07-03T01:51:08.191Z,90.9
2017-07-03T01:51:28.525Z,90.6
2017-07-03T01:51:49.160Z,91.2
2017-07-03T01:52:09.812Z,91.9
2017-07-03T01:52:30.454Z,91
2017-07-03T01:52:51.124Z,91.4
2017-07-03T01:53:11.774Z,91.2
2017-07-03T01:53:32.434Z,92.2
2017-07-03T01:53:53.094Z,91.7
2017-07-03T01:54:13.756Z,92.3
2017-07-03T01:54:34.411Z,92.3
2017-07-03T01:54:55.070Z,92.3
2017-07-03T01:55:16.486Z,92.3
2017-07-03T01:55:37.137Z,92.3
2017-07-03T01:55:57.799Z,92.8
2017-07-03T01:56:18.440Z,92.6
2017-07-03T01:56:39.087Z,92
2017-07-03T01:56:59.759Z,90.8
2017-07-03T01:57:20.433Z,91.6
2017-07-03T01:57:41.094Z,91.9
2017-07-03T01:58:01.739Z,92.3
2017-07-03T01:58:22.385Z,92.3
2017-07-03T01:58:43.900Z,91.9
2017-07-03T01:59:04.561Z,91.2
2017-07-03T01:59:30.145Z,91.1
2017-07-03T01:59:51.477Z,91.6
2017-07-03T02:00:12.123Z,91.2
2017-07-03T02:00:33.419Z,90.7
2017-07-03T02:00:54.988Z,90.8
2017-07-03T02:01:15.641Z,91
2017-07-03T02:01:36.281Z,91.2
2017-07-03T02:01:58.459Z,92.1
2017-07-03T02:02:19.146Z,91.6
2017-07-03T02:02:39.789Z,92.3
2017-07-03T02:03:01.339Z,92.6
2017-07-03T02:03:21.990Z,92.6
2017-07-03T02:03:42.666Z,92.9
2017-07-03T02:04:03.349Z,93.5
2017-07-03T02:04:23.997Z,93.4
2017-07-03T02:04:44.666Z,93.4
2017-07-03T02:05:05.325Z,92.5
2017-07-03T02:05:25.972Z,92.6
2017-07-03T02:05:46.622Z,92.4
2017-07-03T02:06:07.286Z,92.1
2017-07-03T02:06:27.942Z,92.3
2017-07-03T02:06:48.582Z,92
2017-07-03T02:07:09.231Z,91
2017-07-03T02:07:30.449Z,90.8
2017-07-03T02:07:51.119Z,91.5
2017-07-03T02:08:11.760Z,92.3
2017-07-03T02:08:32.418Z,92.6
2017-07-03T02:08:53.069Z,92.6
2017-07-03T02:09:13.718Z,92.6
2017-07-03T02:09:34.368Z,92.5
2017-07-03T02:09:55.008Z,92.7
2017-07-03T02:10:15.652Z,92.1
2017-07-03T02:10:36.281Z,92
2017-07-03T02:10:56.940Z,91.5
2017-07-03T02:11:17.581Z,91.9
2017-07-03T02:11:38.976Z,91.6
2017-07-03T02:12:00.413Z,91.7
2017-07-03T02:12:20.755Z,91.4
2017-07-03T02:12:41.407Z,91.2
2017-07-03T02:13:02.059Z,92.1
2017-07-03T02:13:22.421Z,92.2
2017-07-03T02:13:43.932Z,92
2017-07-03T02:14:04.598Z,92.2
2017-07-03T02:14:25.238Z,92.3
2017-07-03T02:14:45.899Z,91.7
2017-07-03T02:15:06.551Z,92.3
2017-07-03T02:15:27.188Z,92.3
2017-07-03T02:15:48.470Z,92.5
2017-07-03T02:16:09.124Z,92.5
2017-07-03T02:16:30.537Z,92.5
2017-07-03T02:16:51.185Z,92.8
2017-07-03T02:17:12.501Z,92.4
2017-07-03T02:17:33.162Z,92.4
2017-07-03T02:17:54.519Z,92.6
2017-07-03T02:18:15.187Z,92.3
2017-07-03T02:18:35.839Z,91.2
2017-07-03T02:18:56.505Z,91.3
2017-07-03T02:19:17.162Z,91.6
2017-07-03T02:19:37.814Z,90.8
2017-07-03T02:19:58.465Z,91
2017-07-03T02:20:19.116Z,90.6
2017-07-03T02:20:39.772Z,90.8
2017-07-03T02:21:00.436Z,90.3
2017-07-03T02:21:21.083Z,90.6
2017-07-03T02:21:41.746Z,90.8
2017-07-03T02:22:02.450Z,90.5
2017-07-03T02:22:23.097Z,91.6
2017-07-03T02:22:43.473Z,90.9
2017-07-03T02:23:05.007Z,90.6
2017-07-03T02:23:25.702Z,90.9
2017-07-03T02:23:46.358Z,90.5
2017-07-03T02:24:07.013Z,90.6
2017-07-03T02:24:27.659Z,90.9
2017-07-03T02:24:48.313Z,91.2
2017-07-03T02:25:09.017Z,91.1
2017-07-03T02:25:29.684Z,90.7
2017-07-03T02:25:50.359Z,90.5
2017-07-03T02:26:11.005Z,91
2017-07-03T02:26:31.656Z,89.7
2017-07-03T02:26:52.298Z,89.6
2017-07-03T02:27:14.435Z,88.7
2017-07-03T02:27:35.946Z,88.7
2017-07-03T02:27:56.605Z,89.5
2017-07-03T02:28:16.965Z,90.1
2017-07-03T02:28:37.616Z,90
2017-07-03T02:28:59.019Z,89.4
2017-07-03T02:29:19.720Z,89.5
2017-07-03T02:29:40.418Z,89.3
2017-07-03T02:30:01.944Z,89.5
2017-07-03T02:30:22.595Z,89.6
2017-07-03T02:30:43.928Z,90.1
2017-07-03T02:31:04.593Z,90
2017-07-03T02:31:25.858Z,90.1
2017-07-03T02:31:46.521Z,89.4
2017-07-03T02:32:07.183Z,90.1
2017-07-03T02:32:27.844Z,89.8
2017-07-03T02:32:49.429Z,89.9
2017-07-03T02:33:11.004Z,90
2017-07-03T02:33:31.641Z,89.4
2017-07-03T02:33:52.296Z,88.4
2017-07-03T02:34:12.947Z,88.1
2017-07-03T02:34:33.595Z,88.6
2017-07-03T02:34:54.237Z,88.4
2017-07-03T02:35:14.889Z,88.4
2017-07-03T02:35:35.548Z,89.5
2017-07-03T02:35:56.235Z,90.1
2017-07-03T02:36:16.880Z,90.3
2017-07-03T02:36:37.517Z,90.2
2017-07-03T02:36:58.173Z,90.6
2017-07-03T02:37:19.521Z,90
2017-07-03T02:37:40.168Z,90.4
2017-07-03T02:38:00.822Z,90.3
2017-07-03T02:38:21.476Z,90.2
2017-07-03T02:38:42.118Z,90.1
2017-07-03T02:39:02.767Z,89.7
2017-07-03T02:39:23.411Z,90.5
2017-07-03T02:39:44.069Z,90.1
2017-07-03T02:40:04.715Z,90
2017-07-03T02:40:25.443Z,88.8
2017-07-03T02:40:46.272Z,89
2017-07-03T02:41:07.138Z,89.3
2017-07-03T02:41:28.027Z,90
2017-07-03T02:41:48.781Z,89.9
2017-07-03T02:42:09.419Z,90.3
2017-07-03T02:42:30.068Z,90.1
2017-07-03T02:42:50.722Z,90.1
2017-07-03T02:43:11.390Z,90.4
2017-07-03T02:43:32.039Z,90.9
2017-07-03T02:43:52.685Z,90.5
2017-07-03T02:44:13.324Z,90.4
2017-07-03T02:44:33.964Z,90.7
2017-07-03T02:44:54.663Z,89.5
2017-07-03T02:45:15.305Z,89.7
2017-07-03T02:45:35.962Z,90.3
2017-07-03T02:45:56.672Z,89.8
2017-07-03T02:46:17.330Z,89.7
2017-07-03T02:46:38.957Z,89.4
2017-07-03T02:46:59.595Z,89.4
2017-07-03T02:47:20.247Z,89.6
2017-07-03T02:47:40.908Z,90.2
2017-07-03T02:48:01.566Z,90.6
2017-07-03T02:48:22.212Z,90.2
2017-07-03T02:48:42.876Z,91
2017-07-03T02:49:03.538Z,91
2017-07-03T02:49:24.197Z,90.4
2017-07-03T02:49:44.857Z,91
2017-07-03T02:50:05.508Z,90.4
2017-07-03T02:50:26.149Z,90.7
2017-07-03T02:50:46.795Z,90.5
2017-07-03T02:51:07.435Z,90.6
2017-07-03T02:51:28.091Z,90.7
2017-07-03T02:51:50.373Z,91.6
2017-07-03T02:52:11.022Z,91.3
2017-07-03T02:52:31.667Z,91.4
2017-07-03T02:52:52.319Z,91.5
2017-07-03T02:53:12.985Z,91
2017-07-03T02:53:33.638Z,91.2
2017-07-03T02:53:54.287Z,91.2
2017-07-03T02:54:14.943Z,90.9
2017-07-03T02:54:35.856Z,91.2
2017-07-03T02:54:56.520Z,91.3
2017-07-03T02:55:17.168Z,90.6
2017-07-03T02:55:37.827Z,91
2017-07-03T02:55:58.477Z,91.4
2017-07-03T02:56:19.132Z,90.9
2017-07-03T02:56:40.452Z,91
2017-07-03T02:57:01.109Z,91.1
2017-07-03T02:57:21.755Z,91
2017-07-03T02:57:42.415Z,91.5
2017-07-03T02:58:03.112Z,91
2017-07-03T02:58:23.767Z,90.8
2017-07-03T02:58:44.416Z,91.2
2017-07-03T02:59:05.076Z,91.5
2017-07-03T02:59:25.736Z,91.9
2017-07-03T02:59:46.386Z,91.8
2017-07-03T03:00:07.036Z,91.9
2017-07-03T03:00:27.696Z,91.2
2017-07-03T03:00:48.348Z,91.4
2017-07-03T03:01:09.007Z,90.9
2017-07-03T03:01:29.653Z,90.7
2017-07-03T03:01:50.292Z,91.3
2017-07-03T03:02:10.942Z,91.1
2017-07-03T03:02:31.593Z,91.2
2017-07-03T03:02:52.247Z,91.2
2017-07-03T03:03:12.909Z,91.1
2017-07-03T03:03:34.582Z,91.2
2017-07-03T03:03:55.232Z,91.3
2017-07-03T03:04:16.524Z,92.2
2017-07-03T03:04:37.177Z,91.9
2017-07-03T03:04:57.821Z,91.4
2017-07-03T03:05:18.467Z,91.2
2017-07-03T03:05:39.112Z,91.3
2017-07-03T03:05:59.760Z,91.8
2017-07-03T03:06:20.423Z,92.7
2017-07-03T03:06:41.066Z,92.6
2017-07-03T03:07:02.380Z,91.8
2017-07-03T03:07:23.947Z,91.1
2017-07-03T03:07:44.600Z,90.8
2017-07-03T03:08:05.250Z,91.2
2017-07-03T03:08:25.904Z,91.3
2017-07-03T03:08:46.563Z,91.8
2017-07-03T03:09:07.225Z,91.8
2017-07-03T03:09:27.880Z,91.2
2017-07-03T03:09:48.551Z,91.2
2017-07-03T03:10:09.258Z,91.1
2017-07-03T03:10:30.494Z,90.8
2017-07-03T03:10:51.159Z,91.1
2017-07-03T03:11:11.799Z,90.7
2017-07-03T03:11:32.448Z,90.9
2017-07-03T03:11:53.111Z,90.4
2017-07-03T03:12:13.772Z,91.1
2017-07-03T03:12:34.111Z,90.5
2017-07-03T03:12:54.766Z,91
2017-07-03T03:13:15.422Z,90.9
2017-07-03T03:13:36.081Z,91.8
2017-07-03T03:13:57.436Z,91.5
2017-07-03T03:14:17.765Z,92.2
2017-07-03T03:14:38.442Z,90.7
2017-07-03T03:14:59.097Z,90
2017-07-03T03:15:19.741Z,89.9
2017-07-03T03:15:40.962Z,89.7
2017-07-03T03:16:01.605Z,90
2017-07-03T03:16:22.344Z,90.9
2017-07-03T03:16:43.035Z,90
2017-07-03T03:17:03.693Z,89.6
2017-07-03T03:17:24.341Z,90.2
2017-07-03T03:17:45.000Z,89.9
2017-07-03T03:18:06.219Z,89.9
2017-07-03T03:18:28.475Z,90
2017-07-03T03:18:49.154Z,89.4
2017-07-03T03:19:09.812Z,90
2017-07-03T03:19:30.477Z,90.8
2017-07-03T03:19:51.128Z,91
2017-07-03T03:20:11.891Z,91.3
2017-07-03T03:20:32.729Z,91.7
2017-07-03T03:20:53.393Z,91.8
2017-07-03T03:21:15.083Z,91.7
2017-07-03T03:21:36.484Z,90.7
2017-07-03T03:21:57.178Z,89.6
2017-07-03T03:22:17.851Z,90.6
2017-07-03T03:22:38.489Z,91
2017-07-03T03:22:59.130Z,90.6
2017-07-03T03:23:19.777Z,91.1
2017-07-03T03:23:40.432Z,90.5
2017-07-03T03:24:01.091Z,90.9
2017-07-03T03:24:21.744Z,91.3
2017-07-03T03:24:42.394Z,91.2
2017-07-03T03:25:03.046Z,91.3
2017-07-03T03:25:23.701Z,91.3
2017-07-03T03:25:44.382Z,91.2
2017-07-03T03:26:05.017Z,92
2017-07-03T03:26:25.666Z,91.1
2017-07-03T03:26:46.311Z,91.6
2017-07-03T03:27:06.624Z,91.1
2017-07-03T03:27:27.284Z,91
2017-07-03T03:27:47.935Z,91.3
2017-07-03T03:28:08.601Z,91.2
2017-07-03T03:28:29.258Z,91.4
2017-07-03T03:28:49.913Z,91
2017-07-03T03:29:10.580Z,90.8
2017-07-03T03:29:31.232Z,90.8
2017-07-03T03:29:52.531Z,90.9
2017-07-03T03:30:13.167Z,90.8
2017-07-03T03:30:33.819Z,90.6
2017-07-03T03:30:54.492Z,91
2017-07-03T03:31:15.167Z,91
2017-07-03T03:31:35.882Z,91.1
2017-07-03T03:31:57.900Z,90.6
2017-07-03T03:32:18.552Z,90.6
2017-07-03T03:32:39.202Z,90.9
2017-07-03T03:32:59.867Z,91.2
2017-07-03T03:33:20.513Z,90.6
2017-07-03T03:33:41.182Z,90.6
2017-07-03T03:34:01.858Z,90.2
2017-07-03T03:34:22.521Z,89.3
2017-07-03T03:34:43.184Z,89.7
2017-07-03T03:35:03.841Z,90.7
2017-07-03T03:35:24.544Z,90.6
2017-07-03T03:35:45.187Z,90.7
2017-07-03T03:36:05.849Z,90.3
2017-07-03T03:36:26.491Z,90.3
2017-07-03T03:36:47.136Z,90.9
2017-07-03T03:37:07.799Z,90.7
2017-07-03T03:37:28.436Z,90.6
2017-07-03T03:37:49.082Z,90.4
2017-07-03T03:38:09.737Z,90.4
2017-07-03T03:38:30.446Z,90.3
2017-07-03T03:38:51.090Z,91.1
2017-07-03T03:39:11.732Z,91.4
2017-07-03T03:39:32.388Z,91
2017-07-03T03:39:53.042Z,90.1
2017-07-03T03:40:13.697Z,90
2017-07-03T03:40:34.356Z,90.3
2017-07-03T03:40:55.008Z,90.5
2017-07-03T03:41:15.661Z,90.9
2017-07-03T03:41:36.337Z,90.9
2017-07-03T03:41:56.667Z,90.7
2017-07-03T03:42:17.375Z,90.7
2017-07-03T03:42:38.042Z,91
2017-07-03T03:42:58.700Z,91.2
2017-07-03T03:43:19.355Z,91.5
2017-07-03T03:43:40.905Z,91.2
2017-07-03T03:44:01.583Z,91
2017-07-03T03:44:22.237Z,91
2017-07-03T03:44:42.891Z,91.2
2017-07-03T03:45:04.537Z,91
2017-07-03T03:45:25.185Z,90.7
2017-07-03T03:45:45.837Z,90.7
2017-07-03T03:46:06.552Z,90.7
2017-07-03T03:46:28.231Z,91.1
2017-07-03T03:46:48.880Z,91.2
2017-07-03T03:47:10.411Z,91.2
2017-07-03T03:47:31.063Z,91.3
2017-07-03T03:47:51.708Z,91
2017-07-03T03:48:12.357Z,91.1
2017-07-03T03:48:33.003Z,91.2
2017-07-03T03:48:53.336Z,90.7
2017-07-03T03:49:14.003Z,90.7
2017-07-03T03:49:34.673Z,91
2017-07-03T03:49:55.382Z,91.3
2017-07-03T03:50:16.044Z,91.4
2017-07-03T03:50:36.685Z,91.2
2017-07-03T03:50:57.333Z,90.8
2017-07-03T03:51:17.995Z,91.2
2017-07-03T03:51:38.647Z,91.2
2017-07-03T03:51:59.308Z,91.6
2017-07-03T03:52:19.967Z,92
2017-07-03T03:52:40.628Z,91.5
2017-07-03T03:53:01.290Z,91.7
2017-07-03T03:53:21.943Z,91.9
2017-07-03T03:53:42.603Z,91.2
2017-07-03T03:54:03.260Z,91.4
2017-07-03T03:54:23.982Z,91.2
2017-07-03T03:54:44.620Z,92.3
2017-07-03T03:55:05.277Z,92.5
2017-07-03T03:55:25.922Z,92.7
2017-07-03T03:55:46.579Z,92.6
2017-07-03T03:56:07.238Z,92.8
2017-07-03T03:56:28.505Z,92.6
2017-07-03T03:56:49.195Z,92.5
2017-07-03T03:57:09.861Z,92.3
2017-07-03T03:57:30.249Z,92.1
2017-07-03T03:57:50.925Z,91.7
2017-07-03T03:58:11.588Z,91.9
2017-07-03T03:58:32.245Z,91.2
2017-07-03T03:58:52.904Z,91
2017-07-03T03:59:13.612Z,90.9
2017-07-03T03:59:34.279Z,91.4
2017-07-03T03:59:54.949Z,91.4
2017-07-03T04:00:15.601Z,91.9
2017-07-03T04:00:37.001Z,91.5
2017-07-03T04:00:57.670Z,91.5
2017-07-03T04:01:19.054Z,92.3
2017-07-03T04:01:39.701Z,92.2
2017-07-03T04:02:00.043Z,92.1
2017-07-03T04:02:20.692Z,91.7
2017-07-03T04:02:41.365Z,91.8
2017-07-03T04:03:01.742Z,92
2017-07-03T04:03:22.381Z,91.9
2017-07-03T04:03:43.036Z,92
2017-07-03T04:04:04.546Z,91.9
2017-07-03T04:04:25.202Z,91.2
2017-07-03T04:04:45.862Z,90.8
2017-07-03T04:05:06.538Z,91.4
2017-07-03T04:05:27.204Z,91.2
2017-07-03T04:05:47.854Z,91.8
2017-07-03T04:06:08.533Z,91.7
2017-07-03T04:06:29.205Z,90.6
2017-07-03T04:06:49.858Z,90.5
2017-07-03T04:07:10.512Z,90.5
2017-07-03T04:07:31.164Z,90.9
2017-07-03T04:07:51.823Z,90.5
2017-07-03T04:08:12.497Z,90.9
2017-07-03T04:08:33.147Z,90.8
2017-07-03T04:08:53.806Z,90.8
2017-07-03T04:09:14.504Z,90.9
2017-07-03T04:09:35.162Z,91.2
2017-07-03T04:09:55.811Z,91.4
2017-07-03T04:10:16.466Z,90.8
2017-07-03T04:10:37.111Z,90.8
2017-07-03T04:10:57.771Z,91.4
2017-07-03T04:11:18.421Z,90.5
2017-07-03T04:11:39.112Z,90.8
2017-07-03T04:11:59.754Z,91.4
2017-07-03T04:12:20.419Z,91
2017-07-03T04:12:41.092Z,91
2017-07-03T04:13:01.753Z,90.3
2017-07-03T04:13:22.422Z,90.6
2017-07-03T04:13:44.007Z,90.5
2017-07-03T04:14:04.664Z,90.8
2017-07-03T04:14:25.415Z,90.6
2017-07-03T04:14:46.110Z,90.8
2017-07-03T04:15:06.763Z,91
2017-07-03T04:15:27.420Z,90.6
2017-07-03T04:15:48.071Z,90.4
2017-07-03T04:16:08.729Z,90.8
2017-07-03T04:16:29.382Z,91.4
2017-07-03T04:16:50.978Z,91.2
2017-07-03T04:17:11.627Z,91.3
2017-07-03T04:17:32.277Z,91.2
2017-07-03T04:17:52.978Z,91.3
2017-07-03T04:18:13.689Z,91.6
2017-07-03T04:18:34.362Z,92.5
2017-07-03T04:18:55.015Z,92.2
2017-07-03T04:19:15.663Z,91.8
2017-07-03T04:19:36.332Z,90.7
2017-07-03T04:19:56.992Z,89.3
2017-07-03T04:20:17.637Z,90
2017-07-03T04:20:38.333Z,90
2017-07-03T04:20:58.991Z,89.8
2017-07-03T04:21:20.529Z,90.6
2017-07-03T04:21:41.220Z,90
2017-07-03T04:22:01.886Z,89.7
2017-07-03T04:22:22.569Z,90
2017-07-03T04:22:43.233Z,90.3
2017-07-03T04:23:03.923Z,90.7
2017-07-03T04:23:24.574Z,90.5
2017-07-03T04:23:45.270Z,90.4
2017-07-03T04:24:05.921Z,90.7
2017-07-03T04:24:26.578Z,90.8
2017-07-03T04:24:48.105Z,90.5
2017-07-03T04:25:08.760Z,89.8
2017-07-03T04:25:30.004Z,90.5
2017-07-03T04:25:50.656Z,90.6
2017-07-03T04:26:11.321Z,89.7
2017-07-03T04:26:32.590Z,89.9
2017-07-03T04:26:53.243Z,89.9
2017-07-03T04:27:13.895Z,90.4
2017-07-03T04:27:35.069Z,91
2017-07-03T04:27:55.737Z,90.6
2017-07-03T04:28:16.381Z,90.7
2017-07-03T04:28:37.033Z,90.7
2017-07-03T04:28:57.711Z,90.4
2017-07-03T04:29:18.361Z,90.6
2017-07-03T04:29:39.014Z,90.3
2017-07-03T04:29:59.673Z,90.7
2017-07-03T04:30:20.326Z,90.5
2017-07-03T04:30:40.974Z,90.9
2017-07-03T04:31:01.677Z,90.4
2017-07-03T04:31:22.318Z,91
2017-07-03T04:31:42.971Z,90.5
2017-07-03T04:32:03.664Z,90.1
2017-07-03T04:32:24.315Z,90.1
2017-07-03T04:32:45.010Z,89.5
2017-07-03T04:33:05.663Z,89.2
2017-07-03T04:33:26.380Z,89.2
2017-07-03T04:33:47.051Z,89.9
2017-07-03T04:34:08.587Z,90.6
2017-07-03T04:34:29.230Z,90.8
2017-07-03T04:34:49.889Z,90.5
2017-07-03T04:35:10.558Z,90.9
2017-07-03T04:35:31.246Z,89.9
2017-07-03T04:35:51.897Z,89.2
2017-07-03T04:36:12.538Z,88.9
2017-07-03T04:36:33.196Z,88.9
2017-07-03T04:36:53.858Z,90.2
2017-07-03T04:37:14.519Z,90.6
2017-07-03T04:37:35.164Z,90
2017-07-03T04:37:55.832Z,89.6
2017-07-03T04:38:16.502Z,89.5
2017-07-03T04:38:37.165Z,89.2